Time;durP1;ratioP1;P1;durP2;ratioP2;P2;SDS_P1;SDS_P2;PMS_P1;PMS_P2;Temp;Humidity;BMP_temperature;BMP_pressure;BME280_temperature;BME280_humidity;BME280_pressure;Samples;Min_cycle;Max_cycle;Signal;HPM_P1;HPM_P2
2023/09/28 00:00:37;;;;;;;4.00;2.17;;;20.70;99.90;;;;;;5032292;28;20398;-33
2023/09/28 00:03:04;;;;;;;4.60;2.00;;;20.60;99.90;;;;;;5032304;28;20018;-40
2023/09/28 00:05:30;;;;;;;4.95;2.03;;;20.60;99.90;;;;;;5032028;28;20498;-41
2023/09/28 00:07:56;;;;;;;4.43;2.03;;;20.60;99.90;;;;;;5032094;28;20030;-34
2023/09/28 00:10:21;;;;;;;2.08;1.88;;;20.60;99.90;;;;;;5032146;28;20026;-35
2023/09/28 00:12:55;;;;;;;5.55;2.25;;;20.60;99.90;;;;;;5032079;28;20178;-35
2023/09/28 00:15:22;;;;;;;3.10;1.90;;;20.60;99.90;;;;;;5032273;28;20074;-36
2023/09/28 00:17:47;;;;;;;3.15;2.13;;;20.60;99.90;;;;;;5031951;28;20033;-33
2023/09/28 00:20:18;;;;;;;4.72;1.98;;;20.60;99.90;;;;;;5031918;28;20068;-41
2023/09/28 00:22:53;;;;;;;3.10;2.08;;;20.60;99.90;;;;;;5032006;28;20071;-41
2023/09/28 00:25:21;;;;;;;4.95;2.28;;;20.60;99.90;;;;;;5031816;28;20013;-34
2023/09/28 00:27:50;;;;;;;3.53;2.10;;;20.60;99.90;;;;;;5032047;28;20347;-37
2023/09/28 00:30:20;;;;;;;3.05;2.10;;;20.60;99.90;;;;;;5031948;28;20068;-35
2023/09/28 00:32:50;;;;;;;3.17;2.33;;;20.60;99.90;;;;;;5031777;28;20025;-37
2023/09/28 00:35:17;;;;;;;3.22;2.10;;;20.60;99.90;;;;;;5031676;28;20497;-37
2023/09/28 00:37:43;;;;;;;2.50;2.03;;;20.60;99.90;;;;;;5031800;28;20024;-37
2023/09/28 00:40:31;;;;;;;3.38;1.88;;;20.60;99.90;;;;;;5031939;28;20037;-36
2023/09/28 00:42:58;;;;;;;4.22;2.45;;;20.60;99.90;;;;;;5032055;28;20022;-34
2023/09/28 00:45:25;;;;;;;5.63;2.40;;;20.60;99.90;;;;;;5031524;28;20076;-36
2023/09/28 00:47:54;;;;;;;3.03;1.95;;;20.60;99.90;;;;;;5033569;28;20031;-33
2023/09/28 00:50:21;;;;;;;4.05;2.50;;;20.60;99.90;;;;;;5036104;28;20447;-35
2023/09/28 00:52:55;;;;;;;3.55;2.15;;;20.60;99.90;;;;;;5032564;28;20030;-33
2023/09/28 00:55:22;;;;;;;2.95;2.15;;;20.60;99.90;;;;;;5014586;28;20112;-33
2023/09/28 00:57:48;;;;;;;3.28;2.00;;;20.60;99.90;;;;;;5031338;28;20025;-37
2023/09/28 01:00:27;;;;;;;3.88;2.35;;;20.60;99.90;;;;;;5031328;28;20029;-33
2023/09/28 01:02:55;;;;;;;2.75;2.10;;;20.60;99.90;;;;;;5031423;28;20032;-35
2023/09/28 01:05:22;;;;;;;3.92;1.77;;;20.60;99.90;;;;;;5031165;28;20018;-37
2023/09/28 01:07:48;;;;;;;3.40;2.20;;;20.60;99.90;;;;;;5031227;28;20435;-35
2023/09/28 01:10:20;;;;;;;2.90;1.90;;;20.60;99.90;;;;;;5031133;28;20470;-35
2023/09/28 01:12:47;;;;;;;3.25;2.13;;;20.60;99.90;;;;;;5031230;28;20083;-36
2023/09/28 01:15:13;;;;;;;3.05;2.20;;;20.50;99.90;;;;;;5031181;28;20028;-35
2023/09/28 01:17:39;;;;;;;3.95;2.10;;;20.60;99.90;;;;;;5031139;28;20029;-35
2023/09/28 01:20:34;;;;;;;2.42;1.90;;;20.50;99.90;;;;;;5032278;28;20502;-38
2023/09/28 01:22:55;;;;;;;2.67;1.80;;;20.50;99.90;;;;;;5030187;28;20030;-33
2023/09/28 01:25:21;;;;;;;4.80;1.95;;;20.60;99.90;;;;;;5031045;28;20126;-35
2023/09/28 01:27:47;;;;;;;2.67;1.98;;;20.50;99.90;;;;;;5031059;28;20025;-35
2023/09/28 01:30:14;;;;;;;3.03;1.98;;;20.60;99.90;;;;;;5031073;28;20030;-37
2023/09/28 01:32:40;;;;;;;6.15;2.17;;;20.50;99.90;;;;;;5032030;28;20083;-39
2023/09/28 01:35:07;;;;;;;2.88;2.08;;;20.50;99.90;;;;;;5031523;28;20033;-35
2023/09/28 01:38:03;;;;;;;2.53;1.65;;;20.60;99.90;;;;;;5030832;28;20057;-33
2023/09/28 01:40:29;;;;;;;3.28;2.22;;;20.60;99.90;;;;;;5031189;28;20034;-35
2023/09/28 01:42:55;;;;;;;3.03;1.95;;;20.50;99.90;;;;;;5031477;28;20483;-36
2023/09/28 01:45:21;;;;;;;3.28;2.20;;;20.50;99.90;;;;;;5031408;28;20033;-37
2023/09/28 01:47:47;;;;;;;3.03;2.22;;;20.50;99.90;;;;;;5030868;28;20337;-35
2023/09/28 01:50:12;;;;;;;3.13;2.00;;;20.50;99.90;;;;;;5030910;28;20123;-33
2023/09/28 01:52:38;;;;;;;2.05;1.77;;;20.50;99.90;;;;;;5030854;28;20104;-35
2023/09/28 01:55:04;;;;;;;2.60;1.88;;;20.50;99.90;;;;;;5032495;28;20064;-33
2023/09/28 01:57:31;;;;;;;3.22;2.20;;;20.50;99.90;;;;;;5034548;28;20483;-33
2023/09/28 01:59:59;;;;;;;3.05;2.08;;;20.50;99.90;;;;;;5035113;28;20039;-36
2023/09/28 02:02:24;;;;;;;2.47;2.00;;;20.50;99.90;;;;;;5034490;28;20124;-38
2023/09/28 02:04:50;;;;;;;3.95;2.33;;;20.50;99.90;;;;;;5034463;28;20021;-33
2023/09/28 02:07:16;;;;;;;6.80;2.40;;;20.50;99.90;;;;;;5034330;28;20430;-35
2023/09/28 02:09:41;;;;;;;3.28;2.20;;;20.50;99.90;;;;;;5034437;28;20060;-36
2023/09/28 02:12:07;;;;;;;4.43;1.90;;;20.50;99.90;;;;;;5034349;28;20429;-33
2023/09/28 02:14:33;;;;;;;3.30;2.20;;;20.50;99.90;;;;;;5034234;28;20033;-32
2023/09/28 02:16:59;;;;;;;3.28;2.20;;;20.50;99.90;;;;;;5034109;28;20043;-34
2023/09/28 02:19:24;;;;;;;3.25;2.30;;;20.50;99.90;;;;;;5034402;28;20041;-33
2023/09/28 02:21:51;;;;;;;3.45;2.30;;;20.50;99.90;;;;;;5034255;28;20029;-33
2023/09/28 02:24:17;;;;;;;2.88;1.95;;;20.50;99.90;;;;;;5034173;28;20032;-35
2023/09/28 02:26:44;;;;;;;4.38;2.00;;;20.50;99.90;;;;;;5033933;28;20013;-33
2023/09/28 02:29:10;;;;;;;2.20;1.92;;;20.50;99.90;;;;;;5034108;28;20040;-36
2023/09/28 02:31:42;;;;;;;3.85;1.70;;;20.50;99.90;;;;;;5034023;28;20033;-36
2023/09/28 02:34:08;;;;;;;2.47;1.90;;;20.50;99.90;;;;;;5033960;28;20479;-36
2023/09/28 02:36:34;;;;;;;3.20;2.28;;;20.50;99.90;;;;;;5033711;28;20032;-36
2023/09/28 02:38:59;;;;;;;3.05;2.10;;;20.50;99.90;;;;;;5035281;28;20029;-39
2023/09/28 02:41:25;;;;;;;2.28;1.88;;;20.50;99.90;;;;;;5033880;28;20026;-33
2023/09/28 02:43:51;;;;;;;2.58;1.85;;;20.50;99.90;;;;;;5033835;28;20053;-35
2023/09/28 02:46:17;;;;;;;3.35;2.00;;;20.50;99.90;;;;;;5033298;28;20026;-36
2023/09/28 02:48:42;;;;;;;2.97;1.98;;;20.50;99.90;;;;;;5033757;28;20386;-33
2023/09/28 02:51:10;;;;;;;3.65;2.10;;;20.50;99.90;;;;;;5016033;28;20465;-43
2023/09/28 02:53:36;;;;;;;3.13;2.10;;;20.50;99.90;;;;;;5034391;28;20049;-44
2023/09/28 02:56:02;;;;;;;5.10;2.05;;;20.50;99.90;;;;;;5033265;28;20064;-45
2023/09/28 02:58:28;;;;;;;3.22;2.30;;;20.50;99.90;;;;;;5033563;28;20021;-44
2023/09/28 03:00:56;;;;;;;2.80;1.95;;;20.50;99.90;;;;;;5033322;28;20032;-45
2023/09/28 03:03:22;;;;;;;4.15;2.20;;;20.40;99.90;;;;;;5033531;28;20052;-46
2023/09/28 03:05:48;;;;;;;3.22;1.90;;;20.40;99.90;;;;;;5033160;28;20021;-45
2023/09/28 03:08:14;;;;;;;2.90;2.00;;;20.40;99.90;;;;;;5033393;28;20368;-44
2023/09/28 03:10:44;;;;;;;3.30;2.10;;;20.40;99.90;;;;;;5033310;28;20442;-44
2023/09/28 03:13:11;;;;;;;2.65;1.90;;;20.50;99.90;;;;;;5033147;28;20030;-45
2023/09/28 03:15:40;;;;;;;3.88;2.17;;;20.50;99.90;;;;;;5032960;28;20025;-46
2023/09/28 03:18:06;;;;;;;3.70;2.05;;;20.50;99.90;;;;;;5033176;28;20025;-43
2023/09/28 03:20:32;;;;;;;2.40;2.10;;;20.50;99.90;;;;;;5032996;28;20033;-44
2023/09/28 03:22:58;;;;;;;3.03;2.03;;;20.50;99.90;;;;;;5033124;28;20030;-45
2023/09/28 03:25:24;;;;;;;6.25;2.28;;;20.50;99.90;;;;;;5032797;28;20029;-44
2023/09/28 03:27:52;;;;;;;3.58;2.03;;;20.40;99.90;;;;;;5032811;28;20383;-44
2023/09/28 03:30:19;;;;;;;2.50;1.80;;;20.40;99.90;;;;;;5032961;28;20107;-46
2023/09/28 03:32:47;;;;;;;1.98;1.73;;;20.40;99.90;;;;;;5032894;28;20048;-46
2023/09/28 03:35:13;;;;;;;2.78;2.08;;;20.40;99.90;;;;;;5032573;28;20033;-46
2023/09/28 03:37:40;;;;;;;3.85;2.00;;;20.40;99.90;;;;;;5032763;28;20372;-44
2023/09/28 03:40:10;;;;;;;3.28;2.30;;;20.40;99.90;;;;;;5032603;28;20021;-45
2023/09/28 03:42:40;;;;;;;4.07;2.10;;;20.40;99.90;;;;;;5032634;28;20013;-44
2023/09/28 03:45:10;;;;;;;2.88;1.95;;;20.40;99.90;;;;;;5032553;28;20030;-44
2023/09/28 03:47:37;;;;;;;3.50;2.30;;;20.40;99.90;;;;;;5033088;28;20391;-46
2023/09/28 03:50:04;;;;;;;3.08;2.28;;;20.40;99.90;;;;;;5014764;28;20108;-44
2023/09/28 03:52:30;;;;;;;3.42;2.15;;;20.40;99.90;;;;;;5032522;28;20037;-46
2023/09/28 03:54:56;;;;;;;3.08;1.85;;;20.40;99.90;;;;;;5032170;28;20394;-45
2023/09/28 03:57:22;;;;;;;2.95;2.08;;;20.40;99.90;;;;;;5032272;28;20041;-43
2023/09/28 03:59:48;;;;;;;2.72;2.03;;;20.40;99.90;;;;;;5032324;28;20288;-43
2023/09/28 04:02:14;;;;;;;4.32;1.85;;;20.40;99.90;;;;;;5032318;28;20091;-42
2023/09/28 04:04:40;;;;;;;2.55;1.98;;;20.40;99.90;;;;;;5032205;28;20475;-45
2023/09/28 04:07:06;;;;;;;2.97;2.20;;;20.40;99.90;;;;;;5032147;28;20025;-45
2023/09/28 04:09:32;;;;;;;3.55;2.28;;;20.40;99.90;;;;;;5032102;28;20025;-46
2023/09/28 04:11:58;;;;;;;2.72;1.85;;;20.40;99.90;;;;;;5032178;28;20032;-49
2023/09/28 04:14:24;;;;;;;3.47;2.00;;;20.40;99.90;;;;;;5032093;28;20029;-44
2023/09/28 04:16:50;;;;;;;6.03;2.30;;;20.40;99.90;;;;;;5031727;28;20446;-45
2023/09/28 04:19:16;;;;;;;3.38;1.70;;;20.40;99.90;;;;;;5031731;28;20035;-43
2023/09/28 04:21:42;;;;;;;4.53;2.20;;;20.40;99.90;;;;;;5031988;28;20030;-43
2023/09/28 04:24:08;;;;;;;3.70;2.40;;;20.40;99.90;;;;;;5031765;28;20018;-43
2023/09/28 04:26:34;;;;;;;2.47;1.85;;;20.40;99.90;;;;;;5031726;28;20044;-43
2023/09/28 04:28:59;;;;;;;4.18;2.30;;;20.40;99.90;;;;;;5031938;28;20088;-44
2023/09/28 04:31:25;;;;;;;3.42;2.10;;;20.40;99.90;;;;;;5031794;28;20055;-45
2023/09/28 04:33:50;;;;;;;3.80;2.35;;;20.40;99.90;;;;;;5031783;28;20017;-46
2023/09/28 04:36:16;;;;;;;2.88;2.40;;;20.30;99.90;;;;;;5031483;28;20026;-46
2023/09/28 04:38:42;;;;;;;3.40;2.35;;;20.40;99.90;;;;;;5032007;28;20515;-45
2023/09/28 04:41:08;;;;;;;3.15;2.60;;;20.40;99.90;;;;;;5031579;28;20479;-46
2023/09/28 04:43:34;;;;;;;2.53;1.95;;;20.30;99.90;;;;;;5031644;28;20029;-44
2023/09/28 04:46:05;;;;;;;5.10;2.22;;;20.40;99.90;;;;;;5031231;28;20430;-45
2023/09/28 04:48:31;;;;;;;2.38;1.80;;;20.40;99.90;;;;;;5031701;28;20467;-44
2023/09/28 04:50:57;;;;;;;2.47;1.80;;;20.40;99.90;;;;;;5031551;28;20033;-45
2023/09/28 04:53:23;;;;;;;3.65;2.50;;;20.30;99.90;;;;;;5031375;28;20029;-45
2023/09/28 04:55:48;;;;;;;3.75;2.20;;;20.30;99.90;;;;;;5031241;28;20017;-45
2023/09/28 04:58:14;;;;;;;4.68;2.28;;;20.30;99.90;;;;;;5031371;28;20029;-44
2023/09/28 05:00:40;;;;;;;3.38;2.40;;;20.30;99.90;;;;;;5031251;28;20529;-44
2023/09/28 05:03:06;;;;;;;4.60;2.38;;;20.30;99.90;;;;;;5031295;28;20025;-47
2023/09/28 05:05:34;;;;;;;2.65;2.00;;;20.30;99.90;;;;;;5031101;28;20026;-46
2023/09/28 05:08:00;;;;;;;3.63;2.05;;;20.30;99.90;;;;;;5031215;28;20506;-46
2023/09/28 05:10:26;;;;;;;6.13;2.10;;;20.30;99.90;;;;;;5031303;28;20061;-46
2023/09/28 05:12:52;;;;;;;3.55;2.30;;;20.30;99.90;;;;;;5031329;28;20104;-44
2023/09/28 05:15:17;;;;;;;3.08;2.05;;;20.30;99.90;;;;;;5031101;28;20022;-44
2023/09/28 05:17:43;;;;;;;6.22;2.30;;;20.30;99.90;;;;;;5031131;28;20499;-45
2023/09/28 05:20:09;;;;;;;4.53;1.95;;;20.30;99.90;;;;;;5031646;28;20506;-45
2023/09/28 05:22:35;;;;;;;2.92;2.28;;;20.30;99.90;;;;;;5031052;28;20030;-44
2023/09/28 05:25:02;;;;;;;2.97;2.05;;;20.30;99.90;;;;;;5013204;28;20415;-43
2023/09/28 05:27:28;;;;;;;2.90;2.05;;;20.30;99.90;;;;;;5030952;28;20633;-45
2023/09/28 05:29:54;;;;;;;2.60;2.10;;;20.30;99.90;;;;;;5032493;28;20060;-43
2023/09/28 05:32:19;;;;;;;3.53;2.22;;;20.30;99.90;;;;;;5035200;28;20042;-45
2023/09/28 05:34:46;;;;;;;4.25;2.25;;;20.30;99.90;;;;;;5035093;28;20037;-44
2023/09/28 05:37:12;;;;;;;2.92;2.10;;;20.30;99.90;;;;;;5034915;28;20026;-46
2023/09/28 05:39:38;;;;;;;5.43;2.20;;;20.30;99.90;;;;;;5034882;28;20021;-46
2023/09/28 05:42:04;;;;;;;4.15;1.90;;;20.30;99.90;;;;;;5034871;28;20471;-46
2023/09/28 05:44:30;;;;;;;2.80;1.92;;;20.30;99.90;;;;;;5034802;28;20026;-43
2023/09/28 05:46:55;;;;;;;2.72;1.98;;;20.30;99.90;;;;;;5034631;28;20033;-46
2023/09/28 05:49:21;;;;;;;3.72;2.03;;;20.30;99.90;;;;;;5034872;28;20030;-45
2023/09/28 05:51:47;;;;;;;3.95;1.95;;;20.30;99.90;;;;;;5034689;28;20033;-46
2023/09/28 05:54:13;;;;;;;2.97;2.05;;;20.30;99.90;;;;;;5034760;28;20048;-43
2023/09/28 05:56:39;;;;;;;3.05;1.90;;;20.30;99.90;;;;;;5034472;28;20036;-47
2023/09/28 05:59:04;;;;;;;2.92;2.08;;;20.30;99.90;;;;;;5034601;28;20026;-45
2023/09/28 06:01:30;;;;;;;2.50;2.03;;;20.20;99.90;;;;;;5034641;28;20030;-43
2023/09/28 06:03:56;;;;;;;4.85;2.33;;;20.20;99.90;;;;;;5034455;28;20024;-45
2023/09/28 06:06:22;;;;;;;3.67;2.20;;;20.20;99.90;;;;;;5034199;28;20052;-46
2023/09/28 06:08:50;;;;;;;3.13;2.08;;;20.20;99.90;;;;;;5034487;28;20438;-44
2023/09/28 06:11:16;;;;;;;2.80;2.33;;;20.20;99.90;;;;;;5034476;28;20018;-45
2023/09/28 06:13:43;;;;;;;3.65;2.20;;;20.20;99.90;;;;;;5034428;28;20037;-45
2023/09/28 06:16:11;;;;;;;3.30;2.28;;;20.20;99.90;;;;;;5034102;28;20029;-45
2023/09/28 06:18:38;;;;;;;3.25;2.20;;;20.20;99.90;;;;;;5034206;28;20026;-45
2023/09/28 06:21:03;;;;;;;4.15;2.40;;;20.20;99.90;;;;;;5034175;28;20034;-47
2023/09/28 06:23:30;;;;;;;2.78;2.05;;;20.30;99.90;;;;;;5034309;28;20139;-43
2023/09/28 06:25:56;;;;;;;2.78;2.22;;;20.20;99.90;;;;;;5033961;28;20021;-43
2023/09/28 06:28:24;;;;;;;3.88;1.98;;;20.20;99.90;;;;;;5034205;28;20475;-43
2023/09/28 06:30:51;;;;;;;2.83;2.10;;;20.20;99.90;;;;;;5034105;28;20104;-45
2023/09/28 06:33:17;;;;;;;2.33;1.77;;;20.20;99.90;;;;;;5033921;28;20030;-45
2023/09/28 06:35:43;;;;;;;2.78;2.00;;;20.20;99.90;;;;;;5033852;28;20025;-44
2023/09/28 06:38:08;;;;;;;2.78;2.00;;;20.20;99.90;;;;;;5033968;28;20151;-46
2023/09/28 06:40:34;;;;;;;3.20;2.20;;;20.20;99.90;;;;;;5033640;28;20033;-46
2023/09/28 06:42:59;;;;;;;2.38;1.75;;;20.30;99.90;;;;;;5033929;28;20079;-45
2023/09/28 06:45:25;;;;;;;2.60;2.08;;;20.30;99.90;;;;;;5033540;28;20537;-47
2023/09/28 06:47:53;;;;;;;2.15;1.77;;;20.30;99.90;;;;;;5033635;28;20030;-43
2023/09/28 06:50:19;;;;;;;2.95;1.92;;;20.30;99.90;;;;;;5034220;28;20018;-44
2023/09/28 06:52:45;;;;;;;2.65;2.05;;;20.20;99.90;;;;;;5033690;28;20026;-45
2023/09/28 06:55:11;;;;;;;2.80;2.10;;;20.30;99.90;;;;;;5033440;28;20027;-45
2023/09/28 06:57:37;;;;;;;2.80;2.00;;;20.30;99.90;;;;;;5033542;28;20024;-45
2023/09/28 07:00:06;;;;;;;2.33;1.80;;;20.30;99.90;;;;;;5033584;28;20546;-45
2023/09/28 07:02:32;;;;;;;4.13;2.10;;;20.30;99.90;;;;;;5033346;28;20025;-45
2023/09/28 07:04:57;;;;;;;2.70;2.08;;;20.30;99.90;;;;;;5033528;28;20048;-44
2023/09/28 07:07:24;;;;;;;4.30;1.98;;;20.20;99.90;;;;;;5033140;28;20021;-44
2023/09/28 07:09:51;;;;;;;3.40;2.35;;;20.30;99.90;;;;;;5033392;28;20171;-44
2023/09/28 07:12:17;;;;;;;2.65;1.83;;;20.30;99.90;;;;;;5033342;28;20032;-46
2023/09/28 07:14:42;;;;;;;3.28;2.20;;;20.30;99.90;;;;;;5033120;28;20376;-42
2023/09/28 07:17:08;;;;;;;2.83;1.80;;;20.30;99.90;;;;;;5033052;28;20040;-43
2023/09/28 07:19:34;;;;;;;2.95;1.98;;;20.30;99.90;;;;;;5033296;28;20025;-43
2023/09/28 07:22:01;;;;;;;2.70;2.30;;;20.30;99.90;;;;;;5033033;28;20080;-46
2023/09/28 07:24:29;;;;;;;2.92;2.03;;;20.30;99.90;;;;;;5032994;28;20048;-44
2023/09/28 07:26:56;;;;;;;2.78;1.85;;;20.30;99.90;;;;;;5032886;28;20021;-45
2023/09/28 07:29:21;;;;;;;2.65;1.90;;;20.30;99.90;;;;;;5032960;28;20033;-44
2023/09/28 07:31:47;;;;;;;3.05;2.10;;;20.30;99.90;;;;;;5032854;28;20036;-46
2023/09/28 07:34:13;;;;;;;3.67;2.10;;;20.30;99.90;;;;;;5032992;28;20052;-44
2023/09/28 07:36:39;;;;;;;2.30;1.70;;;20.30;99.90;;;;;;5032632;28;20038;-45
2023/09/28 07:39:05;;;;;;;5.60;1.80;;;20.30;99.90;;;;;;5032795;28;20025;-45
2023/09/28 07:41:30;;;;;;;2.42;1.92;;;20.30;99.90;;;;;;5032840;28;20017;-46
2023/09/28 07:43:56;;;;;;;3.80;1.90;;;20.30;99.90;;;;;;5032668;28;20022;-46
2023/09/28 07:46:21;;;;;;;3.67;1.60;;;20.30;99.90;;;;;;5032232;28;20471;-47
2023/09/28 07:48:47;;;;;;;3.28;2.05;;;20.30;99.90;;;;;;5014808;28;20105;-45
2023/09/28 07:51:13;;;;;;;2.83;2.08;;;20.30;99.90;;;;;;5032579;28;20067;-43
2023/09/28 07:53:39;;;;;;;2.58;1.73;;;20.30;99.90;;;;;;5032190;28;20037;-43
2023/09/28 07:56:05;;;;;;;2.55;1.67;;;20.30;99.90;;;;;;5032314;28;20052;-43
2023/09/28 07:58:30;;;;;;;2.65;2.20;;;20.30;99.90;;;;;;5032444;28;20038;-46
2023/09/28 08:00:56;;;;;;;3.10;1.85;;;20.30;99.90;;;;;;5032223;28;20423;-43
2023/09/28 08:03:21;;;;;;;2.05;1.60;;;20.30;99.90;;;;;;5032367;28;20032;-47
2023/09/28 08:05:47;;;;;;;2.30;1.90;;;20.30;99.90;;;;;;5032023;28;20017;-45
2023/09/28 08:08:13;;;;;;;3.15;1.98;;;20.30;99.90;;;;;;5032650;28;20394;-44
2023/09/28 08:10:38;;;;;;;2.97;1.95;;;20.40;99.90;;;;;;5032482;28;20034;-44
2023/09/28 08:13:04;;;;;;;2.83;1.90;;;20.40;99.90;;;;;;5032204;28;20022;-44
2023/09/28 08:15:30;;;;;;;2.50;1.90;;;20.30;99.90;;;;;;5031774;28;20029;-43
2023/09/28 08:17:55;;;;;;;2.50;1.80;;;20.40;99.90;;;;;;5032110;28;20029;-45
2023/09/28 08:20:22;;;;;;;2.83;1.92;;;20.40;99.90;;;;;;5032025;28;20120;-45
2023/09/28 08:22:47;;;;;;;3.17;1.80;;;20.40;99.90;;;;;;5031939;28;20044;-45
2023/09/28 08:25:14;;;;;;;2.50;1.90;;;20.40;99.90;;;;;;5031704;28;20017;-45
2023/09/28 08:27:41;;;;;;;2.47;1.65;;;20.40;99.90;;;;;;5031803;28;20067;-45
2023/09/28 08:30:07;;;;;;;2.15;1.80;;;20.40;99.90;;;;;;5031757;28;20048;-43
2023/09/28 08:32:33;;;;;;;3.22;2.05;;;20.50;99.90;;;;;;5031785;28;20118;-44
2023/09/28 08:35:00;;;;;;;2.78;1.90;;;20.50;99.90;;;;;;5031645;28;20098;-43
2023/09/28 08:37:25;;;;;;;2.42;1.88;;;20.50;99.90;;;;;;5031662;28;20048;-44
2023/09/28 08:39:51;;;;;;;4.13;1.63;;;20.50;99.90;;;;;;5031752;28;20018;-45
2023/09/28 08:42:23;;;;;;;2.75;1.95;;;20.50;99.90;;;;;;5031767;28;20068;-44
2023/09/28 08:44:52;;;;;;;2.05;1.63;;;20.50;99.90;;;;;;5031610;28;20155;-43
2023/09/28 08:47:19;;;;;;;3.05;1.67;;;20.50;99.90;;;;;;5031737;28;20108;-45
2023/09/28 08:49:50;;;;;;;2.40;1.88;;;20.50;99.90;;;;;;5031568;28;20025;-43
2023/09/28 08:52:17;;;;;;;2.25;1.73;;;20.60;99.90;;;;;;5031539;28;20033;-46
2023/09/28 08:54:43;;;;;;;2.60;1.83;;;20.60;99.90;;;;;;5013543;28;20502;-44
2023/09/28 08:57:15;;;;;;;2.65;1.73;;;20.60;99.90;;;;;;5031290;28;20081;-45
2023/09/28 08:59:42;;;;;;;3.42;1.70;;;20.60;99.90;;;;;;5031634;28;20420;-46
2023/09/28 09:02:09;;;;;;;2.30;1.90;;;20.60;99.90;;;;;;5031863;28;20060;-44
2023/09/28 09:04:34;;;;;;;2.00;1.65;;;20.60;99.90;;;;;;5031351;28;20032;-46
2023/09/28 09:07:04;;;;;;;2.40;1.42;;;20.60;99.90;;;;;;5031200;28;20465;-44
2023/09/28 09:09:32;;;;;;;1.77;1.60;;;20.60;99.90;;;;;;5031282;28;20365;-47
2023/09/28 09:12:00;;;;;;;2.00;1.73;;;20.70;99.90;;;;;;5013451;28;20029;-45
2023/09/28 09:14:28;;;;;;;2.42;1.80;;;20.60;99.90;;;;;;5031221;28;20558;-47
2023/09/28 09:16:54;;;;;;;3.20;1.80;;;20.70;99.90;;;;;;5031252;28;20044;-44
2023/09/28 09:19:20;;;;;;;1.85;1.30;;;20.70;99.90;;;;;;5031129;28;20026;-45
2023/09/28 09:21:45;;;;;;;1.88;1.63;;;20.70;99.90;;;;;;5031156;28;20033;-46
2023/09/28 09:24:19;;;;;;;2.05;1.58;;;20.70;99.90;;;;;;5013483;28;20467;-45
2023/09/28 09:26:46;;;;;;;2.95;1.70;;;20.70;99.90;;;;;;5030970;28;20053;-45
2023/09/28 09:29:14;;;;;;;2.50;1.67;;;20.70;99.90;;;;;;5031140;28;20056;-45
2023/09/28 09:31:45;;;;;;;2.42;1.67;;;20.70;99.90;;;;;;5031104;28;20025;-45
2023/09/28 09:34:17;;;;;;;3.47;1.88;;;20.70;99.90;;;;;;5031116;28;20021;-45
2023/09/28 09:36:48;;;;;;;2.08;1.45;;;20.70;99.90;;;;;;5030751;28;20096;-45
2023/09/28 09:39:23;;;;;;;2.42;1.75;;;20.70;99.90;;;;;;5031052;28;20105;-45
2023/09/28 09:41:49;;;;;;;2.17;1.73;;;20.80;99.90;;;;;;5031037;28;20030;-45
2023/09/28 09:44:19;;;;;;;2.30;1.70;;;20.80;99.90;;;;;;5030990;28;20040;-46
2023/09/28 09:46:49;;;;;;;1.90;1.50;;;20.80;99.90;;;;;;5031264;28;20252;-45
2023/09/28 09:49:16;;;;;;;2.67;1.90;;;20.80;99.90;;;;;;5030852;28;20025;-45
2023/09/28 09:51:46;;;;;;;14.23;2.00;;;20.80;99.90;;;;;;5030901;28;20029;-45
2023/09/28 09:54:13;;;;;;;6.50;2.20;;;20.90;99.90;;;;;;5030932;28;20020;-45
2023/09/28 09:56:43;;;;;;;6.22;2.45;;;20.90;99.90;;;;;;5030680;28;20124;-45
2023/09/28 09:59:15;;;;;;;6.03;2.47;;;20.90;99.90;;;;;;5030881;28;20025;-45
2023/09/28 10:01:46;;;;;;;9.02;2.42;;;20.90;99.90;;;;;;5030626;28;20052;-44
2023/09/28 10:04:16;;;;;;;3.47;2.13;;;20.90;99.90;;;;;;5030950;28;20026;-44
2023/09/28 10:06:51;;;;;;;2.63;2.10;;;20.90;99.90;;;;;;5030708;28;20022;-44
2023/09/28 10:09:21;;;;;;;7.43;2.50;;;20.90;99.90;;;;;;5030763;28;20479;-43
2023/09/28 10:11:49;;;;;;;4.03;2.10;;;21.00;99.90;;;;;;5030772;28;20028;-45
2023/09/28 10:14:16;;;;;;;4.18;2.30;;;21.00;99.90;;;;;;5030883;28;20034;-46
2023/09/28 10:16:44;;;;;;;4.55;2.55;;;21.00;99.90;;;;;;5032934;28;20030;-44
2023/09/28 10:19:15;;;;;;;6.72;2.30;;;21.00;99.90;;;;;;5034319;28;20036;-45
2023/09/28 10:21:41;;;;;;;3.60;2.22;;;21.00;99.90;;;;;;5034411;28;20411;-45
2023/09/28 10:24:14;;;;;;;3.63;2.10;;;21.00;99.90;;;;;;5034279;28;20032;-45
2023/09/28 10:26:50;;;;;;;4.85;2.33;;;21.00;99.90;;;;;;5033898;28;20110;-43
2023/09/28 10:29:28;;;;;;;3.63;2.20;;;21.00;99.90;;;;;;5016249;28;20026;-45
2023/09/28 10:31:54;;;;;;;5.15;1.98;;;21.00;99.90;;;;;;5034038;28;20022;-45
2023/09/28 10:34:20;;;;;;;4.22;2.35;;;21.00;99.90;;;;;;5033936;28;20045;-44
2023/09/28 10:37:10;;;;;;;3.00;1.80;;;21.10;99.90;;;;;;5033785;28;20111;-45
2023/09/28 10:39:37;;;;;;;5.47;2.22;;;21.00;99.90;;;;;;5034053;28;20021;-45
2023/09/28 10:42:13;;;;;;;3.92;1.92;;;21.00;99.90;;;;;;5033822;28;20573;-45
2023/09/28 10:44:57;;;;;;;3.03;2.10;;;21.10;99.90;;;;;;5033767;28;20125;-45
2023/09/28 10:47:23;;;;;;;3.47;2.10;;;21.10;99.90;;;;;;5033461;28;20041;-45
2023/09/28 10:50:02;;;;;;;2.88;2.05;;;21.10;99.90;;;;;;5033757;28;20502;-47
2023/09/28 10:52:28;;;;;;;2.28;1.70;;;21.10;99.90;;;;;;5033796;28;20453;-46
2023/09/28 10:54:54;;;;;;;3.88;2.17;;;21.10;99.90;;;;;;5033596;28;20026;-44
2023/09/28 10:57:28;;;;;;;3.53;2.28;;;21.10;99.90;;;;;;5033473;28;20383;-45
2023/09/28 11:00:02;;;;;;;2.92;1.90;;;21.10;99.90;;;;;;5015821;28;20111;-44
2023/09/28 11:02:28;;;;;;;1.80;1.55;;;21.10;99.90;;;;;;5033554;28;20025;-45
2023/09/28 11:04:56;;;;;;;2.90;2.05;;;21.10;99.90;;;;;;5033406;28;20020;-46
2023/09/28 11:07:21;;;;;;;3.25;1.85;;;21.10;99.90;;;;;;5033401;28;20119;-45
2023/09/28 11:09:47;;;;;;;3.05;1.80;;;21.20;99.90;;;;;;5033305;28;20053;-44
2023/09/28 11:12:13;;;;;;;3.75;2.00;;;21.10;99.90;;;;;;5033278;28;20391;-45
2023/09/28 11:14:42;;;;;;;2.40;1.73;;;21.10;99.90;;;;;;5033052;28;20056;-45
2023/09/28 11:17:09;;;;;;;2.85;1.90;;;21.10;99.90;;;;;;5033166;28;20414;-44
2023/09/28 11:19:35;;;;;;;4.35;1.90;;;21.20;99.90;;;;;;5033148;28;20056;-45
2023/09/28 11:22:01;;;;;;;2.70;1.83;;;21.20;99.90;;;;;;5033151;28;20055;-45
2023/09/28 11:24:27;;;;;;;2.25;1.73;;;21.20;99.90;;;;;;5033182;28;20064;-45
2023/09/28 11:26:53;;;;;;;2.50;1.70;;;21.20;99.90;;;;;;5031899;28;20546;-45
2023/09/28 11:29:19;;;;;;;2.50;1.90;;;21.20;99.90;;;;;;5032675;28;20029;-45
2023/09/28 11:31:50;;;;;;;3.10;1.83;;;21.20;99.90;;;;;;5032986;28;20057;-45
2023/09/28 11:34:28;;;;;;;3.00;2.03;;;21.20;99.90;;;;;;5032917;28;20378;-46
2023/09/28 11:36:55;;;;;;;4.03;1.90;;;21.20;99.90;;;;;;5032798;28;20029;-47
2023/09/28 11:39:24;;;;;;;2.13;1.80;;;21.20;99.90;;;;;;5032705;28;20112;-44
2023/09/28 11:41:59;;;;;;;3.35;2.00;;;21.20;99.90;;;;;;5032853;28;20625;-44
2023/09/28 11:44:26;;;;;;;2.42;1.77;;;21.20;99.90;;;;;;5032681;28;20038;-44
2023/09/28 11:46:53;;;;;;;3.17;1.70;;;21.20;99.90;;;;;;5032407;28;20060;-44
2023/09/28 11:49:21;;;;;;;2.63;1.88;;;21.20;99.90;;;;;;5032658;28;20021;-45
2023/09/28 11:51:47;;;;;;;2.40;1.80;;;21.20;99.90;;;;;;5032561;28;20037;-45
2023/09/28 11:54:15;;;;;;;2.10;1.58;;;21.20;99.90;;;;;;5032369;28;20037;-47
2023/09/28 11:56:41;;;;;;;3.20;1.90;;;21.20;99.90;;;;;;5032492;28;20132;-47
2023/09/28 11:59:08;;;;;;;2.65;1.85;;;21.30;99.90;;;;;;5032417;28;20071;-43
2023/09/28 12:01:34;;;;;;;1.98;1.50;;;21.20;99.90;;;;;;5032502;28;20025;-43
2023/09/28 12:04:00;;;;;;;2.53;1.52;;;21.20;99.90;;;;;;5032423;28;20025;-47
2023/09/28 12:06:26;;;;;;;2.38;1.52;;;21.30;99.90;;;;;;5032004;28;20033;-46
2023/09/28 12:08:52;;;;;;;2.47;1.52;;;21.30;99.90;;;;;;5032220;28;20044;-45
2023/09/28 12:11:18;;;;;;;2.53;1.60;;;21.30;99.90;;;;;;5032207;28;20030;-47
2023/09/28 12:13:44;;;;;;;5.63;1.70;;;21.30;99.90;;;;;;5032127;28;20542;-47
2023/09/28 12:16:10;;;;;;;2.70;1.80;;;21.30;99.90;;;;;;5031868;28;20109;-44
2023/09/28 12:18:36;;;;;;;2.50;1.60;;;21.30;99.90;;;;;;5032145;28;20138;-45
2023/09/28 12:21:02;;;;;;;2.67;1.60;;;21.30;99.90;;;;;;5031842;28;20128;-46
2023/09/28 12:23:28;;;;;;;2.78;1.45;;;21.30;99.90;;;;;;5032025;28;20021;-45
2023/09/28 12:25:56;;;;;;;2.78;1.50;;;21.30;99.90;;;;;;5031701;28;20060;-46
2023/09/28 12:28:22;;;;;;;2.92;1.77;;;21.30;99.90;;;;;;5031921;28;20032;-44
2023/09/28 12:30:48;;;;;;;2.25;1.50;;;21.30;99.90;;;;;;5014219;28;20029;-46
2023/09/28 12:33:14;;;;;;;1.42;1.33;;;21.30;99.90;;;;;;5031878;28;20467;-47
2023/09/28 12:35:40;;;;;;;2.45;1.60;;;21.30;99.90;;;;;;5031458;28;20034;-45
2023/09/28 12:38:07;;;;;;;3.13;1.80;;;21.30;99.90;;;;;;5031409;28;20376;-44
2023/09/28 12:40:33;;;;;;;2.05;1.50;;;21.40;99.90;;;;;;5013886;28;20385;-44
2023/09/28 12:43:05;;;;;;;2.42;1.60;;;21.40;99.90;;;;;;5031665;28;20034;-45
2023/09/28 12:45:35;;;;;;;2.08;1.55;;;21.40;99.90;;;;;;5013542;28;20442;-45
2023/09/28 12:48:05;;;;;;;2.55;1.58;;;21.40;99.90;;;;;;5031699;28;20411;-46